Preview of NWS' New Version of Forecast
This preview is not operational and should not be used for support decisions.
Latest weather observations around

CW5634 Ponderosa (C5634)

Using English Units (Switch to International System of Units)
Date/ Time (PDT) Wind (mph) Vis. (mi) Weather Sky Cond. Temp (°F) Rel. Humidity Wind Chill (°F) Heat Index (°F) Pressure Precip. (in)
Air Dwpt 6 hour Altimeter (inHg) Sea level (inHg) 1 hr 3 hr 6 hr
Max Min
Notice The following observation data may not be complete
Sep 15 01:01     Clear            %              
Sep 15 00:31 S 4   Clear   90 58     34%   89          
Sep 15 00:02 S 8   Clear   91 56     31%   89          
Sep 14 23:31 WSW 10   Clear   92 57     31%   91          
Sep 14 23:02 SSW 7   Clear   92 53     27%   90          
Sep 14 22:31 Calm   Clear   91 35     14%   87          
Sep 14 22:01 Calm   Clear   93 35     13%   89          
Sep 14 21:31 Calm   Clear   95 34     12%   90          
Sep 14 21:01 Calm   Clear   96 33     11%   91          
Sep 14 20:31 Calm   Clear   98 32     10%   92          
Sep 14 20:01 Calm   Clear   98 32     10%   92          
Sep 14 19:31 Calm   Clear   98 32     10%   92          
Sep 14 19:01 Calm   Clear   100 34     10%   94          
Sep 14 18:31 Calm   Clear   102 32     9%   96          
Sep 14 18:02 S 3   Clear   104 34     9%   98          
Sep 14 17:31 ESE 3   Clear   105 32     8%   98          
Sep 14 17:01 Calm   Clear   105 32     8%   98          
Sep 14 16:31 Calm   Clear   105 32     8%   98          
Sep 14 16:01 Calm   Clear   106 29     7%   99          
Sep 14 15:31 E 3   Clear   106 29     7%   99          
Sep 14 15:01 SE 4   Clear   106 35     9%   100          
Sep 14 14:31 SSE 1   Clear   105 35     9%   99          
Sep 14 14:02 S 3   Clear   104 39     11%   99          
Sep 14 13:31 S 4   Clear   103 38     11%   98          
Sep 14 13:02 ESE 7   Clear   102 38     11%   96          
Sep 14 12:31 SSW 3   Clear   101 32     9%   95          
Sep 14 12:01 ESE 3   Clear   99 33     10%   93          
Sep 14 11:31 E 1   Clear   97 34     11%   92          
Sep 14 11:01 SE 1   Clear   94 31     11%   89          
Sep 14 10:31 SE 1   Clear   92 32     12%   87          
Sep 14 10:01 Calm   Clear   91 33     13%   87          
Sep 14 09:31 Calm   Clear   89 34     14%   85          
Sep 14 09:01 ESE 1   Clear   85 34     16%   82          
Sep 14 08:31 Calm   Clear   84 36     18%   81          
Sep 14 08:01 Calm   Clear   83 34     17%   80          
Sep 14 07:31 SE 2   Clear   80 33     18%   79          
Sep 14 07:01 Calm   Clear   81 32     17%   80          
Sep 14 06:31 WNW 1   Clear   78 31     18%   76          
Sep 14 06:02 Calm   Clear   79 30     17%   77          
Sep 14 05:31 S 2   Clear   79 30     17%   77          
Sep 14 05:01 S 1   Clear   79 30     17%   77          
Sep 14 04:31 Calm   Clear   80 31     17%   78          
Sep 14 04:01 Calm   Clear   79 30     17%   77          
Sep 14 03:31 Calm   Clear   81 31     16%   80          
Sep 14 03:01 Calm   Clear   82 31     16%   80          
Sep 14 02:31 Calm   Clear   83 29     14%   80          
Sep 14 02:01 Calm   Clear   82 30     15%   80          
Sep 14 01:31 Calm   Clear   81 33     18%   80          
Sep 14 01:01 Calm   Clear   86 31     14%   83          
Sep 14 00:31 Calm   Clear   87 28     12%   83          
Sep 14 00:01 Calm   Clear   89 30     12%   85          
Sep 13 23:31 W 1   Clear   89 30     12%   85          
Sep 13 23:01 WNW 1   Clear   89 30     12%   85          
Sep 13 22:31 Calm   Clear   90 31     12%   86          
Sep 13 22:01 NNW 1   Clear   90 31     12%   86          
Sep 13 21:31 Calm   Clear   91 31     12%   87          
Sep 13 21:01 Calm   Clear   93 31     11%   88          
Sep 13 20:31 Calm   Clear   95 32     11%   90          
Sep 13 20:01 Calm   Clear   95 32     11%   90          
Sep 13 19:31 Calm   Clear   96 33     11%   91          
Sep 13 19:01 Calm   Clear   98 32     10%   92          
Sep 13 18:31 Calm   Clear   100 34     10%   94          
Sep 13 18:01 Calm   Clear   102 32     9%   96          
Sep 13 17:31 Calm   Clear   103 33     9%   97          
Sep 13 17:01 Calm   Clear   104 34     9%   98          
Sep 13 16:31 NNE 5   Clear   104 31     8%   97          
Sep 13 16:01 NNE 4   Clear   104 34     9%   98          
Sep 13 15:31 NNE 1   Clear   104 34     9%   98          
Sep 13 15:01 NE 5   Clear   104 34     9%   98          
Sep 13 14:31 NNW 4   Clear   104 34     9%   98          
Sep 13 14:01 NW 4   Clear   103 33     9%   97          
Sep 13 13:31 NE 8   Clear   102 32     9%   96          
Sep 13 13:01 NNW 5   Clear   102 32     9%   96          
Sep 13 12:31 NNW 3   Clear   100 31     9%   94          
Sep 13 12:01 N 4   Clear   99 33     10%   93          
Sep 13 11:31 N 12   Clear   97 31     10%   91          
Sep 13 11:01 WSW 7   Clear   96 33     11%   91          
Sep 13 10:31 NNW 7   Clear   94 31     11%   89          
Sep 13 10:01 NW 10   Clear   93 33     12%   88          
Sep 13 09:31 WNW 6   Clear   92 32     12%   87          
Sep 13 09:01 NNW 8   Clear   91 33     13%   87          
Sep 13 08:31 NNW 4   Clear   88 35     15%   84          
Sep 13 08:01 NNW 9   Clear   85 38     19%   82          
Sep 13 07:31 NNE 7   Clear   84 39     20%   81          
Sep 13 07:01 WSW 5   Clear   81 37     21%   80          
Sep 13 06:31 Calm   Clear   79 38     23%   78          
Sep 13 06:01 Calm   Clear   80 37     21%   79          
Sep 13 05:31 NNW 7   Clear   81 36     20%   80          
Sep 13 05:01 NNW 6   Clear   82 34     18%   80          
Sep 13 04:31 NNW 4   Clear   84 34     17%   81          
Sep 13 04:01 NNW 10   Clear   84 31     15%   81          
Sep 13 03:31 NNW 7   Clear   83 34     17%   80          
Sep 13 03:01 NNE 8   Clear   84 33     16%   81          
Sep 13 02:31 NNW 7   Clear   84 31     15%   81          
Sep 13 02:01 N 3   Clear   84 30     14%   81          
Sep 13 01:31 WNW 5   Clear   84 33     16%   81          
Sep 13 01:01 NNW 3   Clear   84 34     17%   81          
Sep 13 00:31 WSW 1   Clear   87 28     12%   83          
Sep 13 00:01 Calm   Clear   86 31     14%   83          
Sep 12 23:31 N 4   Clear   87 32     14%   83          
Sep 12 23:01 NNW 2   Clear   88 29     12%   84          
Sep 12 22:31 NNW 2   Clear   89 30     12%   85          
Sep 12 22:01 N 1   Clear   90 28     11%   85          
Sep 12 21:31 NW 4   Clear   90 28     11%   85          
Sep 12 21:01 Calm   Clear   89 28     11%   85          
Sep 12 20:31 Calm   Clear   90 28     11%   85          
Sep 12 20:01 Calm   Clear   90 28     11%   85          
Sep 12 19:31 NW 5   Clear   92 30     11%   87          
Sep 12 19:01 SSW 1   Clear   94 29     10%   89          
Sep 12 18:31 Calm   Clear   95 30     10%   89          
Sep 12 18:01 WSW 2   Clear   97 29     9%   91          
Sep 12 17:31 WNW 6   Clear   98 30     9%   92          
Sep 12 17:01 Calm   Clear   99 30     9%   93          
Sep 12 16:31 SW 1   Clear   99 30     9%   93          
Sep 12 16:01 NNE 11   Clear   100 34     10%   94          
Sep 12 15:31 NNW 7   Clear   100 34     10%   94          
Sep 12 15:01 N 5   Clear   100 34     10%   94          
Sep 12 14:31 W 7   Clear   99 35     11%   94          
Sep 12 14:01 N 5   Clear   99 35     11%   94          
Sep 12 13:31 NE 2   Clear   98 35     11%   93          
Sep 12 13:01 NW 2   Clear   98 37     12%   93          
Sep 12 12:31 NNW 6   Clear   97 36     12%   92          
Sep 12 12:01 NE 6   Clear   95 36     13%   90          
Sep 12 11:31 WNW 8   Clear   94 38     14%   90          
Sep 12 11:01 NW 8   Clear   92 36     14%   88          
Sep 12 10:31 NNW 7   Clear   91 37     15%   87          
Sep 12 10:01 NW 5   Clear   90 38     16%   86          
Sep 12 09:31 WNW 4   Clear   88 39     18%   84          
Sep 12 09:01 NNW 12   Clear   87 38     18%   84          
Sep 12 08:31 N 9   Clear   86 39     19%   83          
Sep 12 08:01 NNW 13   Clear   85 38     19%   82          
Sep 12 07:31 NNE 13   Clear   84 37     19%   81          
Sep 12 07:01 NNW 4   Clear   82 38     21%   80          
Sep 12 06:31 NNW 5   Clear   80 37     21%   79          
Sep 12 06:01 Calm   Clear   79 34     20%   78          
Sep 12 05:31 NE 2   Clear   79 33     19%   77          
Sep 12 05:01 Calm   Clear   78 34     20%   76          
Sep 12 04:31 Calm   Clear   78 38     24%   77          
Sep 12 04:01 Calm   Clear   80 33     18%   79          
Sep 12 03:31 N 1   Clear   76 34     22%   74          
Sep 12 03:01 Calm   Clear   77 35     22%   75          
Sep 12 02:31 Calm   Clear   77 38     25%   76          
Sep 12 02:01 Calm   Clear   80 34     19%   79          
Sep 12 01:31 Calm   Clear   79 37     22%   78          
Sep 12 01:01 Calm   Clear   79 38     23%   78          
May 14 09:30 S 3   Clear   79 38     23%   78          
May 14 03:31 SSE 2   Clear   73 33     23%   71          
May 13 19:01 E 4   Clear   83 31     15%   80          
May 11 23:31 WSW 6   Clear   79 39     24%   78          
May 11 22:31 S 7   Clear   83 36     19%   81          
May 11 20:01     Clear   88 35     15%   84          
May 11 16:31     Clear   96 35     12%   91